sensor_id;sensor_type;location;lat;lon;timestamp;temperature;humidity
4908;DHT22;64375;51.540;7.364;2023-07-29T00:01:46;23.10;99.90
4908;DHT22;64375;51.540;7.364;2023-07-29T00:04:19;23.10;99.90
4908;DHT22;64375;51.540;7.364;2023-07-29T00:06:58;23.10;99.90
4908;DHT22;64375;51.540;7.364;2023-07-29T00:09:26;23.10;99.90
4908;DHT22;64375;51.540;7.364;2023-07-29T00:11:54;23.10;99.90
4908;DHT22;64375;51.540;7.364;2023-07-29T00:14:25;23.10;99.90
4908;DHT22;64375;51.540;7.364;2023-07-29T00:17:04;23.10;99.90
4908;DHT22;64375;51.540;7.364;2023-07-29T00:19:44;23.10;99.90
4908;DHT22;64375;51.540;7.364;2023-07-29T00:22:13;23.00;99.90
4908;DHT22;64375;51.540;7.364;2023-07-29T00:24:41;23.00;99.90
4908;DHT22;64375;51.540;7.364;2023-07-29T00:27:09;23.00;99.90
4908;DHT22;64375;51.540;7.364;2023-07-29T00:29:37;23.00;99.90
4908;DHT22;64375;51.540;7.364;2023-07-29T00:32:06;22.90;99.90
4908;DHT22;64375;51.540;7.364;2023-07-29T00:34:37;22.90;99.90
4908;DHT22;64375;51.540;7.364;2023-07-29T00:37:09;22.90;99.90
4908;DHT22;64375;51.540;7.364;2023-07-29T00:39:46;22.90;99.90
4908;DHT22;64375;51.540;7.364;2023-07-29T00:42:24;22.90;99.90
4908;DHT22;64375;51.540;7.364;2023-07-29T00:44:54;22.90;99.90
4908;DHT22;64375;51.540;7.364;2023-07-29T00:47:39;22.90;99.90
4908;DHT22;64375;51.540;7.364;2023-07-29T00:50:15;22.90;99.90
4908;DHT22;64375;51.540;7.364;2023-07-29T00:52:43;22.80;99.90
4908;DHT22;64375;51.540;7.364;2023-07-29T00:55:20;22.80;99.90
4908;DHT22;64375;51.540;7.364;2023-07-29T00:57:48;22.80;99.90
4908;DHT22;64375;51.540;7.364;2023-07-29T01:00:18;22.80;99.90
4908;DHT22;64375;51.540;7.364;2023-07-29T01:03:07;22.90;99.90
4908;DHT22;64375;51.540;7.364;2023-07-29T01:05:55;22.80;99.90
4908;DHT22;64375;51.540;7.364;2023-07-29T01:08:33;22.80;99.90
4908;DHT22;64375;51.540;7.364;2023-07-29T01:11:41;22.80;99.90
4908;DHT22;64375;51.540;7.364;2023-07-29T01:14:21;22.80;99.90
4908;DHT22;64375;51.540;7.364;2023-07-29T01:17:07;22.70;99.90
4908;DHT22;64375;51.540;7.364;2023-07-29T01:19:59;22.70;99.90
4908;DHT22;64375;51.540;7.364;2023-07-29T01:22:41;22.70;99.90
4908;DHT22;64375;51.540;7.364;2023-07-29T01:25:11;22.70;99.90
4908;DHT22;64375;51.540;7.364;2023-07-29T01:27:46;22.60;99.90
4908;DHT22;64375;51.540;7.364;2023-07-29T01:30:33;22.60;99.90
4908;DHT22;64375;51.540;7.364;2023-07-29T01:33:18;22.60;99.90
4908;DHT22;64375;51.540;7.364;2023-07-29T01:35:52;22.60;99.90
4908;DHT22;64375;51.540;7.364;2023-07-29T01:38:32;22.60;99.90
4908;DHT22;64375;51.540;7.364;2023-07-29T01:41:09;22.60;99.90
4908;DHT22;64375;51.540;7.364;2023-07-29T01:43:44;22.60;99.90
4908;DHT22;64375;51.540;7.364;2023-07-29T01:46:19;22.60;99.90
4908;DHT22;64375;51.540;7.364;2023-07-29T01:48:53;22.60;99.90
4908;DHT22;64375;51.540;7.364;2023-07-29T01:51:20;22.60;99.90
4908;DHT22;64375;51.540;7.364;2023-07-29T01:53:49;22.60;99.90
4908;DHT22;64375;51.540;7.364;2023-07-29T01:56:20;22.50;99.90
4908;DHT22;64375;51.540;7.364;2023-07-29T01:58:54;22.50;99.90
4908;DHT22;64375;51.540;7.364;2023-07-29T02:01:28;22.50;99.90
4908;DHT22;64375;51.540;7.364;2023-07-29T02:04:00;22.50;99.90
4908;DHT22;64375;51.540;7.364;2023-07-29T02:06:31;22.50;99.90
4908;DHT22;64375;51.540;7.364;2023-07-29T02:09:05;22.50;99.90
4908;DHT22;64375;51.540;7.364;2023-07-29T02:11:40;22.50;99.90
4908;DHT22;64375;51.540;7.364;2023-07-29T02:14:11;22.40;99.90
4908;DHT22;64375;51.540;7.364;2023-07-29T02:16:39;22.30;99.90
4908;DHT22;64375;51.540;7.364;2023-07-29T02:19:20;22.30;99.90
4908;DHT22;64375;51.540;7.364;2023-07-29T02:21:57;22.30;99.90
4908;DHT22;64375;51.540;7.364;2023-07-29T02:24:27;22.30;99.90
4908;DHT22;64375;51.540;7.364;2023-07-29T02:26:57;22.30;99.90
4908;DHT22;64375;51.540;7.364;2023-07-29T02:29:25;22.40;99.90
4908;DHT22;64375;51.540;7.364;2023-07-29T02:32:02;22.40;99.90
4908;DHT22;64375;51.540;7.364;2023-07-29T02:34:36;22.30;99.90
4908;DHT22;64375;51.540;7.364;2023-07-29T02:37:04;22.30;99.90
4908;DHT22;64375;51.540;7.364;2023-07-29T02:39:32;22.30;99.90
4908;DHT22;64375;51.540;7.364;2023-07-29T02:42:05;22.30;99.90
4908;DHT22;64375;51.540;7.364;2023-07-29T02:44:33;22.20;99.90
4908;DHT22;64375;51.540;7.364;2023-07-29T02:47:10;22.20;99.90
4908;DHT22;64375;51.540;7.364;2023-07-29T02:49:38;22.20;99.90
4908;DHT22;64375;51.540;7.364;2023-07-29T02:52:06;22.30;99.90
4908;DHT22;64375;51.540;7.364;2023-07-29T02:54:37;22.20;99.90
4908;DHT22;64375;51.540;7.364;2023-07-29T02:57:09;22.20;99.90
4908;DHT22;64375;51.540;7.364;2023-07-29T02:59:39;22.20;99.90
4908;DHT22;64375;51.540;7.364;2023-07-29T03:02:11;22.30;99.90
4908;DHT22;64375;51.540;7.364;2023-07-29T03:04:41;22.30;99.90
4908;DHT22;64375;51.540;7.364;2023-07-29T03:07:12;22.30;99.90
4908;DHT22;64375;51.540;7.364;2023-07-29T03:09:40;22.30;99.90
4908;DHT22;64375;51.540;7.364;2023-07-29T03:12:10;22.30;99.90
4908;DHT22;64375;51.540;7.364;2023-07-29T03:14:41;22.20;99.90
4908;DHT22;64375;51.540;7.364;2023-07-29T03:17:09;22.20;99.90
4908;DHT22;64375;51.540;7.364;2023-07-29T03:19:51;22.10;99.90
4908;DHT22;64375;51.540;7.364;2023-07-29T03:22:19;22.20;99.90
4908;DHT22;64375;51.540;7.364;2023-07-29T03:24:56;22.30;99.90
4908;DHT22;64375;51.540;7.364;2023-07-29T03:27:32;22.30;99.90
4908;DHT22;64375;51.540;7.364;2023-07-29T03:30:03;22.30;99.90
4908;DHT22;64375;51.540;7.364;2023-07-29T03:32:31;22.40;99.90
4908;DHT22;64375;51.540;7.364;2023-07-29T03:34:59;22.50;99.90
4908;DHT22;64375;51.540;7.364;2023-07-29T03:37:27;22.40;99.90
4908;DHT22;64375;51.540;7.364;2023-07-29T03:39:55;22.40;99.90
4908;DHT22;64375;51.540;7.364;2023-07-29T03:42:27;22.30;99.90
4908;DHT22;64375;51.540;7.364;2023-07-29T03:44:58;22.30;99.90
4908;DHT22;64375;51.540;7.364;2023-07-29T03:47:29;22.40;99.90
4908;DHT22;64375;51.540;7.364;2023-07-29T03:49:57;22.40;99.90
4908;DHT22;64375;51.540;7.364;2023-07-29T03:52:27;22.40;99.90
4908;DHT22;64375;51.540;7.364;2023-07-29T03:54:55;22.40;99.90
4908;DHT22;64375;51.540;7.364;2023-07-29T03:57:30;22.40;99.90
4908;DHT22;64375;51.540;7.364;2023-07-29T04:00:01;22.40;99.90
4908;DHT22;64375;51.540;7.364;2023-07-29T04:02:32;22.30;99.90
4908;DHT22;64375;51.540;7.364;2023-07-29T04:05:05;22.20;99.90
4908;DHT22;64375;51.540;7.364;2023-07-29T04:07:35;22.20;99.90
4908;DHT22;64375;51.540;7.364;2023-07-29T04:10:04;22.20;99.90
4908;DHT22;64375;51.540;7.364;2023-07-29T04:12:43;22.20;99.90
4908;DHT22;64375;51.540;7.364;2023-07-29T04:15:11;22.20;99.90
4908;DHT22;64375;51.540;7.364;2023-07-29T04:17:39;22.10;99.90
4908;DHT22;64375;51.540;7.364;2023-07-29T04:20:10;22.10;99.90
4908;DHT22;64375;51.540;7.364;2023-07-29T04:22:39;22.10;99.90
4908;DHT22;64375;51.540;7.364;2023-07-29T04:25:09;22.00;99.90
4908;DHT22;64375;51.540;7.364;2023-07-29T04:27:37;22.00;99.90
4908;DHT22;64375;51.540;7.364;2023-07-29T04:30:12;22.00;99.90
4908;DHT22;64375;51.540;7.364;2023-07-29T04:32:43;22.00;99.90
4908;DHT22;64375;51.540;7.364;2023-07-29T04:35:17;22.00;99.90
4908;DHT22;64375;51.540;7.364;2023-07-29T04:37:48;22.00;99.90
4908;DHT22;64375;51.540;7.364;2023-07-29T04:40:16;21.90;99.90
4908;DHT22;64375;51.540;7.364;2023-07-29T04:42:44;21.90;99.90
4908;DHT22;64375;51.540;7.364;2023-07-29T04:45:19;21.90;99.90
4908;DHT22;64375;51.540;7.364;2023-07-29T04:47:47;21.80;99.90
4908;DHT22;64375;51.540;7.364;2023-07-29T04:50:15;21.90;99.90
4908;DHT22;64375;51.540;7.364;2023-07-29T04:52:49;22.00;99.90
4908;DHT22;64375;51.540;7.364;2023-07-29T04:55:20;22.10;99.90
4908;DHT22;64375;51.540;7.364;2023-07-29T04:57:47;22.30;99.90
4908;DHT22;64375;51.540;7.364;2023-07-29T05:00:16;22.50;99.90
4908;DHT22;64375;51.540;7.364;2023-07-29T05:02:48;22.50;99.90
4908;DHT22;64375;51.540;7.364;2023-07-29T05:05:16;22.50;99.90
4908;DHT22;64375;51.540;7.364;2023-07-29T05:07:49;22.60;99.90
4908;DHT22;64375;51.540;7.364;2023-07-29T05:10:17;22.60;99.90
4908;DHT22;64375;51.540;7.364;2023-07-29T05:12:45;22.60;99.90
4908;DHT22;64375;51.540;7.364;2023-07-29T05:15:22;22.70;99.90
4908;DHT22;64375;51.540;7.364;2023-07-29T05:17:51;22.60;99.90
4908;DHT22;64375;51.540;7.364;2023-07-29T05:20:19;22.60;99.90
4908;DHT22;64375;51.540;7.364;2023-07-29T05:22:47;22.50;99.90
4908;DHT22;64375;51.540;7.364;2023-07-29T05:25:15;22.50;99.90
4908;DHT22;64375;51.540;7.364;2023-07-29T05:27:52;22.30;99.90
4908;DHT22;64375;51.540;7.364;2023-07-29T05:30:23;22.30;99.90
4908;DHT22;64375;51.540;7.364;2023-07-29T05:32:55;22.30;99.90
4908;DHT22;64375;51.540;7.364;2023-07-29T05:35:26;22.10;99.90
4908;DHT22;64375;51.540;7.364;2023-07-29T05:37:54;22.10;99.90
4908;DHT22;64375;51.540;7.364;2023-07-29T05:40:28;22.10;99.90
4908;DHT22;64375;51.540;7.364;2023-07-29T05:42:59;22.10;99.90
4908;DHT22;64375;51.540;7.364;2023-07-29T05:45:29;22.10;99.90
4908;DHT22;64375;51.540;7.364;2023-07-29T05:48:02;22.20;99.90
4908;DHT22;64375;51.540;7.364;2023-07-29T05:50:30;22.20;99.90
4908;DHT22;64375;51.540;7.364;2023-07-29T05:52:58;22.20;99.90
4908;DHT22;64375;51.540;7.364;2023-07-29T05:55:29;22.10;99.90
4908;DHT22;64375;51.540;7.364;2023-07-29T05:58:00;22.10;99.90
4908;DHT22;64375;51.540;7.364;2023-07-29T06:00:31;22.10;99.90
4908;DHT22;64375;51.540;7.364;2023-07-29T06:03:02;22.10;99.90
4908;DHT22;64375;51.540;7.364;2023-07-29T06:05:33;21.90;99.90
4908;DHT22;64375;51.540;7.364;2023-07-29T06:08:07;21.90;99.90
4908;DHT22;64375;51.540;7.364;2023-07-29T06:10:35;21.90;99.90
4908;DHT22;64375;51.540;7.364;2023-07-29T06:13:03;21.90;99.90
4908;DHT22;64375;51.540;7.364;2023-07-29T06:15:32;22.00;99.90
4908;DHT22;64375;51.540;7.364;2023-07-29T06:18:02;22.00;99.90
4908;DHT22;64375;51.540;7.364;2023-07-29T06:20:33;21.90;99.90
4908;DHT22;64375;51.540;7.364;2023-07-29T06:23:01;22.00;99.90
4908;DHT22;64375;51.540;7.364;2023-07-29T06:25:29;22.10;99.90
4908;DHT22;64375;51.540;7.364;2023-07-29T06:28:00;22.20;99.90
4908;DHT22;64375;51.540;7.364;2023-07-29T06:30:34;22.10;99.90
4908;DHT22;64375;51.540;7.364;2023-07-29T06:33:18;22.10;99.90
4908;DHT22;64375;51.540;7.364;2023-07-29T06:35:49;22.10;99.90
4908;DHT22;64375;51.540;7.364;2023-07-29T06:38:23;22.10;99.90
4908;DHT22;64375;51.540;7.364;2023-07-29T06:40:51;22.20;99.90
4908;DHT22;64375;51.540;7.364;2023-07-29T06:43:25;22.30;99.90
4908;DHT22;64375;51.540;7.364;2023-07-29T06:46:02;22.30;99.90
4908;DHT22;64375;51.540;7.364;2023-07-29T06:48:32;22.30;99.90
4908;DHT22;64375;51.540;7.364;2023-07-29T06:50:59;22.20;99.90
4908;DHT22;64375;51.540;7.364;2023-07-29T06:53:34;22.20;99.90
4908;DHT22;64375;51.540;7.364;2023-07-29T06:56:10;22.20;99.90
4908;DHT22;64375;51.540;7.364;2023-07-29T06:58:40;22.10;99.90
4908;DHT22;64375;51.540;7.364;2023-07-29T07:01:08;22.00;99.90
4908;DHT22;64375;51.540;7.364;2023-07-29T07:03:44;22.10;99.90
4908;DHT22;64375;51.540;7.364;2023-07-29T07:06:20;22.20;99.90
4908;DHT22;64375;51.540;7.364;2023-07-29T07:08:48;22.20;99.90
4908;DHT22;64375;51.540;7.364;2023-07-29T07:11:21;22.30;99.90
4908;DHT22;64375;51.540;7.364;2023-07-29T07:13:55;22.30;99.90
4908;DHT22;64375;51.540;7.364;2023-07-29T07:16:23;22.30;99.90
4908;DHT22;64375;51.540;7.364;2023-07-29T07:18:58;22.30;99.90
4908;DHT22;64375;51.540;7.364;2023-07-29T07:21:29;22.20;99.90
4908;DHT22;64375;51.540;7.364;2023-07-29T07:23:59;22.20;99.90
4908;DHT22;64375;51.540;7.364;2023-07-29T07:26:27;22.20;99.90
4908;DHT22;64375;51.540;7.364;2023-07-29T07:29:00;22.20;99.90
4908;DHT22;64375;51.540;7.364;2023-07-29T07:31:33;22.30;99.90
4908;DHT22;64375;51.540;7.364;2023-07-29T07:34:03;22.20;99.90
4908;DHT22;64375;51.540;7.364;2023-07-29T07:36:34;22.30;99.90
4908;DHT22;64375;51.540;7.364;2023-07-29T07:39:02;22.40;99.90
4908;DHT22;64375;51.540;7.364;2023-07-29T07:41:30;22.40;99.90
4908;DHT22;64375;51.540;7.364;2023-07-29T07:43:58;22.40;99.90
4908;DHT22;64375;51.540;7.364;2023-07-29T07:46:28;22.50;99.90
4908;DHT22;64375;51.540;7.364;2023-07-29T07:48:59;22.50;99.90
4908;DHT22;64375;51.540;7.364;2023-07-29T07:51:28;22.50;99.90
4908;DHT22;64375;51.540;7.364;2023-07-29T07:53:56;22.60;99.90
4908;DHT22;64375;51.540;7.364;2023-07-29T07:56:24;22.60;99.90
4908;DHT22;64375;51.540;7.364;2023-07-29T07:58:52;22.60;99.90
4908;DHT22;64375;51.540;7.364;2023-07-29T08:01:23;22.60;99.90
4908;DHT22;64375;51.540;7.364;2023-07-29T08:03:51;22.60;99.90
4908;DHT22;64375;51.540;7.364;2023-07-29T08:06:19;22.60;99.90
4908;DHT22;64375;51.540;7.364;2023-07-29T08:08:49;22.60;99.90
4908;DHT22;64375;51.540;7.364;2023-07-29T08:11:17;22.70;99.90
4908;DHT22;64375;51.540;7.364;2023-07-29T08:13:45;22.80;99.90
4908;DHT22;64375;51.540;7.364;2023-07-29T08:16:13;22.80;99.90
4908;DHT22;64375;51.540;7.364;2023-07-29T08:18:41;22.80;99.90
4908;DHT22;64375;51.540;7.364;2023-07-29T08:21:09;22.80;99.90
4908;DHT22;64375;51.540;7.364;2023-07-29T08:23:40;22.70;99.90
4908;DHT22;64375;51.540;7.364;2023-07-29T08:26:12;22.60;99.90
4908;DHT22;64375;51.540;7.364;2023-07-29T08:28:43;22.70;99.90
4908;DHT22;64375;51.540;7.364;2023-07-29T08:31:11;22.70;99.90
4908;DHT22;64375;51.540;7.364;2023-07-29T08:33:39;22.70;99.90
4908;DHT22;64375;51.540;7.364;2023-07-29T08:36:07;22.70;99.90
4908;DHT22;64375;51.540;7.364;2023-07-29T08:38:37;22.70;99.90
4908;DHT22;64375;51.540;7.364;2023-07-29T08:41:13;22.70;99.90
4908;DHT22;64375;51.540;7.364;2023-07-29T08:43:52;22.70;99.90
4908;DHT22;64375;51.540;7.364;2023-07-29T08:46:26;22.80;99.90
4908;DHT22;64375;51.540;7.364;2023-07-29T08:48:55;22.80;99.90
4908;DHT22;64375;51.540;7.364;2023-07-29T08:51:38;22.80;99.90
4908;DHT22;64375;51.540;7.364;2023-07-29T08:54:08;22.80;99.90
4908;DHT22;64375;51.540;7.364;2023-07-29T08:56:38;22.80;99.90
4908;DHT22;64375;51.540;7.364;2023-07-29T08:59:07;22.80;99.90
4908;DHT22;64375;51.540;7.364;2023-07-29T09:01:35;22.90;99.90
4908;DHT22;64375;51.540;7.364;2023-07-29T09:04:03;22.90;99.90
4908;DHT22;64375;51.540;7.364;2023-07-29T09:06:35;22.90;99.90
4908;DHT22;64375;51.540;7.364;2023-07-29T09:09:06;22.90;99.90
4908;DHT22;64375;51.540;7.364;2023-07-29T09:11:39;22.90;99.90
4908;DHT22;64375;51.540;7.364;2023-07-29T09:14:07;23.00;99.90
4908;DHT22;64375;51.540;7.364;2023-07-29T09:16:35;23.00;99.90
4908;DHT22;64375;51.540;7.364;2023-07-29T09:19:04;23.00;99.90
4908;DHT22;64375;51.540;7.364;2023-07-29T09:21:41;23.10;99.90
4908;DHT22;64375;51.540;7.364;2023-07-29T09:24:16;23.10;99.90
4908;DHT22;64375;51.540;7.364;2023-07-29T09:26:50;23.10;99.90
4908;DHT22;64375;51.540;7.364;2023-07-29T09:29:23;23.10;99.90
4908;DHT22;64375;51.540;7.364;2023-07-29T09:32:18;23.00;99.90
4908;DHT22;64375;51.540;7.364;2023-07-29T09:34:53;23.00;99.90
4908;DHT22;64375;51.540;7.364;2023-07-29T09:37:22;23.00;99.90
4908;DHT22;64375;51.540;7.364;2023-07-29T09:39:52;23.00;99.90
4908;DHT22;64375;51.540;7.364;2023-07-29T09:42:22;23.00;99.90
4908;DHT22;64375;51.540;7.364;2023-07-29T09:44:51;23.00;99.90
4908;DHT22;64375;51.540;7.364;2023-07-29T09:47:21;22.90;99.90
4908;DHT22;64375;51.540;7.364;2023-07-29T09:49:49;22.70;99.90
4908;DHT22;64375;51.540;7.364;2023-07-29T09:52:23;22.70;99.90
4908;DHT22;64375;51.540;7.364;2023-07-29T09:54:51;22.70;99.90
4908;DHT22;64375;51.540;7.364;2023-07-29T09:57:21;22.70;99.90
4908;DHT22;64375;51.540;7.364;2023-07-29T09:59:56;22.80;99.90
4908;DHT22;64375;51.540;7.364;2023-07-29T10:02:24;22.80;99.90
4908;DHT22;64375;51.540;7.364;2023-07-29T10:04:55;22.90;99.90
4908;DHT22;64375;51.540;7.364;2023-07-29T10:07:24;23.00;99.90
4908;DHT22;64375;51.540;7.364;2023-07-29T10:09:56;23.00;99.90
4908;DHT22;64375;51.540;7.364;2023-07-29T10:12:27;22.90;99.90
4908;DHT22;64375;51.540;7.364;2023-07-29T10:14:59;23.00;99.90
4908;DHT22;64375;51.540;7.364;2023-07-29T10:17:34;23.00;99.90
4908;DHT22;64375;51.540;7.364;2023-07-29T10:20:04;23.00;99.90
4908;DHT22;64375;51.540;7.364;2023-07-29T10:22:36;23.00;99.90
4908;DHT22;64375;51.540;7.364;2023-07-29T10:25:09;22.80;99.90
4908;DHT22;64375;51.540;7.364;2023-07-29T10:27:47;22.90;99.90
4908;DHT22;64375;51.540;7.364;2023-07-29T10:30:16;23.00;99.90
4908;DHT22;64375;51.540;7.364;2023-07-29T10:32:45;23.00;99.90
4908;DHT22;64375;51.540;7.364;2023-07-29T10:35:13;23.10;99.90
4908;DHT22;64375;51.540;7.364;2023-07-29T10:37:42;23.10;99.90
4908;DHT22;64375;51.540;7.364;2023-07-29T10:40:13;23.20;99.90
4908;DHT22;64375;51.540;7.364;2023-07-29T10:43:00;23.30;99.90
4908;DHT22;64375;51.540;7.364;2023-07-29T10:45:36;23.40;99.90
4908;DHT22;64375;51.540;7.364;2023-07-29T10:48:10;23.50;99.90
4908;DHT22;64375;51.540;7.364;2023-07-29T10:50:38;23.50;99.90
4908;DHT22;64375;51.540;7.364;2023-07-29T10:53:06;23.50;99.90
4908;DHT22;64375;51.540;7.364;2023-07-29T10:55:36;23.60;99.90
4908;DHT22;64375;51.540;7.364;2023-07-29T10:58:14;23.60;99.90
4908;DHT22;64375;51.540;7.364;2023-07-29T11:00:44;23.70;99.90
4908;DHT22;64375;51.540;7.364;2023-07-29T11:03:13;23.80;99.90
4908;DHT22;64375;51.540;7.364;2023-07-29T11:05:47;23.80;99.90
4908;DHT22;64375;51.540;7.364;2023-07-29T11:08:22;23.90;99.90
4908;DHT22;64375;51.540;7.364;2023-07-29T11:11:14;23.80;99.90
4908;DHT22;64375;51.540;7.364;2023-07-29T11:13:46;23.80;99.90
4908;DHT22;64375;51.540;7.364;2023-07-29T11:16:16;23.80;99.90
4908;DHT22;64375;51.540;7.364;2023-07-29T11:18:50;23.90;99.90
4908;DHT22;64375;51.540;7.364;2023-07-29T11:21:22;24.00;99.90
4908;DHT22;64375;51.540;7.364;2023-07-29T11:23:53;24.00;99.90
4908;DHT22;64375;51.540;7.364;2023-07-29T11:26:21;24.00;99.90
4908;DHT22;64375;51.540;7.364;2023-07-29T11:28:50;24.00;99.90
4908;DHT22;64375;51.540;7.364;2023-07-29T11:31:18;24.00;99.90
4908;DHT22;64375;51.540;7.364;2023-07-29T11:33:46;24.00;99.90
4908;DHT22;64375;51.540;7.364;2023-07-29T11:36:18;23.90;99.90
4908;DHT22;64375;51.540;7.364;2023-07-29T11:38:46;23.90;99.90
4908;DHT22;64375;51.540;7.364;2023-07-29T11:41:19;23.90;99.90
4908;DHT22;64375;51.540;7.364;2023-07-29T11:43:52;24.00;99.90
4908;DHT22;64375;51.540;7.364;2023-07-29T11:46:23;24.00;99.90
4908;DHT22;64375;51.540;7.364;2023-07-29T11:48:53;23.90;99.90
4908;DHT22;64375;51.540;7.364;2023-07-29T11:51:25;23.80;99.90
4908;DHT22;64375;51.540;7.364;2023-07-29T11:53:54;23.90;99.90
4908;DHT22;64375;51.540;7.364;2023-07-29T11:56:22;23.80;99.90
4908;DHT22;64375;51.540;7.364;2023-07-29T11:58:52;23.80;99.90
4908;DHT22;64375;51.540;7.364;2023-07-29T12:01:21;23.80;99.90
4908;DHT22;64375;51.540;7.364;2023-07-29T12:03:50;23.90;99.90
4908;DHT22;64375;51.540;7.364;2023-07-29T12:06:19;23.90;99.90
4908;DHT22;64375;51.540;7.364;2023-07-29T12:08:50;23.90;99.90
4908;DHT22;64375;51.540;7.364;2023-07-29T12:11:20;23.90;99.90
4908;DHT22;64375;51.540;7.364;2023-07-29T12:13:54;23.90;99.90
4908;DHT22;64375;51.540;7.364;2023-07-29T12:16:22;23.90;99.90
4908;DHT22;64375;51.540;7.364;2023-07-29T12:18:52;23.90;99.90
4908;DHT22;64375;51.540;7.364;2023-07-29T12:21:20;24.00;99.90
4908;DHT22;64375;51.540;7.364;2023-07-29T12:23:50;24.00;99.90
4908;DHT22;64375;51.540;7.364;2023-07-29T12:26:18;24.20;99.90
4908;DHT22;64375;51.540;7.364;2023-07-29T12:28:46;24.30;99.90
4908;DHT22;64375;51.540;7.364;2023-07-29T12:31:16;24.40;99.90
4908;DHT22;64375;51.540;7.364;2023-07-29T12:33:44;24.40;99.90
4908;DHT22;64375;51.540;7.364;2023-07-29T12:36:16;24.40;99.90
4908;DHT22;64375;51.540;7.364;2023-07-29T12:38:45;24.30;99.90
4908;DHT22;64375;51.540;7.364;2023-07-29T12:41:13;24.40;99.90
4908;DHT22;64375;51.540;7.364;2023-07-29T12:43:40;24.40;99.90
4908;DHT22;64375;51.540;7.364;2023-07-29T12:46:11;24.40;99.90
4908;DHT22;64375;51.540;7.364;2023-07-29T12:48:41;24.40;99.90
4908;DHT22;64375;51.540;7.364;2023-07-29T12:51:09;24.40;99.90
4908;DHT22;64375;51.540;7.364;2023-07-29T12:53:40;24.50;99.90
4908;DHT22;64375;51.540;7.364;2023-07-29T12:56:07;24.60;99.90
4908;DHT22;64375;51.540;7.364;2023-07-29T12:58:41;24.70;99.90
4908;DHT22;64375;51.540;7.364;2023-07-29T13:01:09;24.70;99.90
4908;DHT22;64375;51.540;7.364;2023-07-29T13:03:41;24.70;99.90
4908;DHT22;64375;51.540;7.364;2023-07-29T13:06:12;24.70;99.90
4908;DHT22;64375;51.540;7.364;2023-07-29T13:08:40;24.70;99.90
4908;DHT22;64375;51.540;7.364;2023-07-29T13:11:08;24.70;99.90
4908;DHT22;64375;51.540;7.364;2023-07-29T13:13:38;24.80;99.90
4908;DHT22;64375;51.540;7.364;2023-07-29T13:16:06;24.80;99.90
4908;DHT22;64375;51.540;7.364;2023-07-29T13:18:36;24.70;99.90
4908;DHT22;64375;51.540;7.364;2023-07-29T13:21:06;24.60;99.90
4908;DHT22;64375;51.540;7.364;2023-07-29T13:23:34;24.60;99.90
4908;DHT22;64375;51.540;7.364;2023-07-29T13:26:02;24.50;99.90
4908;DHT22;64375;51.540;7.364;2023-07-29T13:28:35;24.60;99.90
4908;DHT22;64375;51.540;7.364;2023-07-29T13:31:18;24.60;99.90
4908;DHT22;64375;51.540;7.364;2023-07-29T13:33:48;24.60;99.90
4908;DHT22;64375;51.540;7.364;2023-07-29T13:36:18;24.70;99.90
4908;DHT22;64375;51.540;7.364;2023-07-29T13:38:49;24.70;99.90
4908;DHT22;64375;51.540;7.364;2023-07-29T13:41:17;24.70;99.90
4908;DHT22;64375;51.540;7.364;2023-07-29T13:43:45;24.70;99.90
4908;DHT22;64375;51.540;7.364;2023-07-29T13:46:12;24.70;99.90
4908;DHT22;64375;51.540;7.364;2023-07-29T13:48:40;24.70;99.90
4908;DHT22;64375;51.540;7.364;2023-07-29T13:51:08;24.70;99.90
4908;DHT22;64375;51.540;7.364;2023-07-29T13:53:38;24.80;99.90
4908;DHT22;64375;51.540;7.364;2023-07-29T13:56:06;25.00;99.90
4908;DHT22;64375;51.540;7.364;2023-07-29T13:58:36;25.10;99.90
4908;DHT22;64375;51.540;7.364;2023-07-29T14:01:10;25.20;99.90
4908;DHT22;64375;51.540;7.364;2023-07-29T14:03:40;25.30;99.90
4908;DHT22;64375;51.540;7.364;2023-07-29T14:06:08;25.50;99.90
4908;DHT22;64375;51.540;7.364;2023-07-29T14:08:38;25.50;99.90
4908;DHT22;64375;51.540;7.364;2023-07-29T14:11:07;25.50;99.90
4908;DHT22;64375;51.540;7.364;2023-07-29T14:13:35;25.60;99.90
4908;DHT22;64375;51.540;7.364;2023-07-29T14:16:03;25.70;99.90
4908;DHT22;64375;51.540;7.364;2023-07-29T14:18:34;25.70;99.90
4908;DHT22;64375;51.540;7.364;2023-07-29T14:21:02;25.80;99.90
4908;DHT22;64375;51.540;7.364;2023-07-29T14:23:42;25.80;99.90
4908;DHT22;64375;51.540;7.364;2023-07-29T14:26:10;25.80;99.90
4908;DHT22;64375;51.540;7.364;2023-07-29T14:28:38;25.80;99.90
4908;DHT22;64375;51.540;7.364;2023-07-29T14:31:06;25.80;99.90
4908;DHT22;64375;51.540;7.364;2023-07-29T14:33:50;25.70;99.90
4908;DHT22;64375;51.540;7.364;2023-07-29T14:36:18;25.70;99.90
4908;DHT22;64375;51.540;7.364;2023-07-29T14:38:58;25.70;99.90
4908;DHT22;64375;51.540;7.364;2023-07-29T14:41:38;25.80;99.90
4908;DHT22;64375;51.540;7.364;2023-07-29T14:44:09;25.80;99.90
4908;DHT22;64375;51.540;7.364;2023-07-29T14:46:46;25.80;99.90
4908;DHT22;64375;51.540;7.364;2023-07-29T14:49:14;25.80;99.90
4908;DHT22;64375;51.540;7.364;2023-07-29T14:51:42;25.80;99.90
4908;DHT22;64375;51.540;7.364;2023-07-29T14:54:11;25.80;99.90
4908;DHT22;64375;51.540;7.364;2023-07-29T14:56:48;25.80;99.90
4908;DHT22;64375;51.540;7.364;2023-07-29T14:59:19;25.80;99.90
4908;DHT22;64375;51.540;7.364;2023-07-29T15:02:02;25.80;99.90
4908;DHT22;64375;51.540;7.364;2023-07-29T15:04:36;25.70;99.90
4908;DHT22;64375;51.540;7.364;2023-07-29T15:07:19;25.60;99.90
4908;DHT22;64375;51.540;7.364;2023-07-29T15:10:06;25.60;99.90
4908;DHT22;64375;51.540;7.364;2023-07-29T15:12:34;25.50;99.90
4908;DHT22;64375;51.540;7.364;2023-07-29T15:15:06;25.50;99.90
4908;DHT22;64375;51.540;7.364;2023-07-29T15:17:38;25.50;99.90
4908;DHT22;64375;51.540;7.364;2023-07-29T15:20:13;25.60;99.90
4908;DHT22;64375;51.540;7.364;2023-07-29T15:22:50;25.60;99.90
4908;DHT22;64375;51.540;7.364;2023-07-29T15:25:34;25.70;99.90
4908;DHT22;64375;51.540;7.364;2023-07-29T15:28:04;25.70;99.90
4908;DHT22;64375;51.540;7.364;2023-07-29T15:30:35;25.70;99.90
4908;DHT22;64375;51.540;7.364;2023-07-29T15:33:03;25.70;99.90
4908;DHT22;64375;51.540;7.364;2023-07-29T15:35:38;25.50;99.90
4908;DHT22;64375;51.540;7.364;2023-07-29T15:38:09;25.50;99.90
4908;DHT22;64375;51.540;7.364;2023-07-29T15:40:41;25.50;99.90
4908;DHT22;64375;51.540;7.364;2023-07-29T15:43:12;25.50;99.90
4908;DHT22;64375;51.540;7.364;2023-07-29T15:45:50;25.40;99.90
4908;DHT22;64375;51.540;7.364;2023-07-29T15:48:21;25.40;99.90
4908;DHT22;64375;51.540;7.364;2023-07-29T15:50:58;25.30;99.90
4908;DHT22;64375;51.540;7.364;2023-07-29T15:53:29;25.40;99.90
4908;DHT22;64375;51.540;7.364;2023-07-29T15:56:10;25.40;99.90
4908;DHT22;64375;51.540;7.364;2023-07-29T15:58:47;25.50;99.90
4908;DHT22;64375;51.540;7.364;2023-07-29T16:01:15;25.50;99.90
4908;DHT22;64375;51.540;7.364;2023-07-29T16:03:43;25.60;99.90
4908;DHT22;64375;51.540;7.364;2023-07-29T16:06:11;25.60;99.90
4908;DHT22;64375;51.540;7.364;2023-07-29T16:08:42;25.60;99.90
4908;DHT22;64375;51.540;7.364;2023-07-29T16:11:11;25.70;99.90
4908;DHT22;64375;51.540;7.364;2023-07-29T16:13:39;25.70;99.90